sensor_id;sensor_type;location;lat;lon;timestamp;P1;durP1;ratioP1;P2;durP2;ratioP2
27977;SDS011;15314;49.248;6.968;2022-10-16T00:00:31;10.23;;;9.63;;
27977;SDS011;15314;49.248;6.968;2022-10-16T00:01:34;9.82;;;9.35;;
27977;SDS011;15314;49.248;6.968;2022-10-16T00:02:35;9.73;;;9.10;;
27977;SDS011;15314;49.248;6.968;2022-10-16T00:03:35;10.43;;;9.43;;
27977;SDS011;15314;49.248;6.968;2022-10-16T00:04:36;12.52;;;11.48;;
27977;SDS011;15314;49.248;6.968;2022-10-16T00:05:41;12.07;;;11.27;;
27977;SDS011;15314;49.248;6.968;2022-10-16T00:06:42;10.23;;;9.63;;
27977;SDS011;15314;49.248;6.968;2022-10-16T00:07:43;11.80;;;10.98;;
27977;SDS011;15314;49.248;6.968;2022-10-16T00:08:43;11.23;;;10.45;;
27977;SDS011;15314;49.248;6.968;2022-10-16T00:09:45;11.35;;;10.63;;
27977;SDS011;15314;49.248;6.968;2022-10-16T00:10:46;11.35;;;10.45;;
27977;SDS011;15314;49.248;6.968;2022-10-16T00:11:46;12.07;;;11.07;;
27977;SDS011;15314;49.248;6.968;2022-10-16T00:12:47;11.95;;;11.15;;
27977;SDS011;15314;49.248;6.968;2022-10-16T00:13:49;10.88;;;10.15;;
27977;SDS011;15314;49.248;6.968;2022-10-16T00:14:51;11.82;;;10.82;;
27977;SDS011;15314;49.248;6.968;2022-10-16T00:15:54;12.52;;;11.43;;
27977;SDS011;15314;49.248;6.968;2022-10-16T00:16:56;12.00;;;10.85;;
27977;SDS011;15314;49.248;6.968;2022-10-16T00:17:56;11.25;;;10.45;;
27977;SDS011;15314;49.248;6.968;2022-10-16T00:18:57;11.77;;;10.88;;
27977;SDS011;15314;49.248;6.968;2022-10-16T00:19:58;12.05;;;10.88;;
27977;SDS011;15314;49.248;6.968;2022-10-16T00:21:08;11.45;;;10.45;;
27977;SDS011;15314;49.248;6.968;2022-10-16T00:22:10;11.68;;;10.88;;
27977;SDS011;15314;49.248;6.968;2022-10-16T00:23:11;10.98;;;10.18;;
27977;SDS011;15314;49.248;6.968;2022-10-16T00:24:12;11.93;;;10.88;;
27977;SDS011;15314;49.248;6.968;2022-10-16T00:25:12;11.25;;;10.35;;
27977;SDS011;15314;49.248;6.968;2022-10-16T00:26:15;10.73;;;9.95;;
27977;SDS011;15314;49.248;6.968;2022-10-16T00:27:16;10.45;;;9.65;;
27977;SDS011;15314;49.248;6.968;2022-10-16T00:28:17;11.20;;;10.23;;
27977;SDS011;15314;49.248;6.968;2022-10-16T00:29:18;10.77;;;9.88;;
27977;SDS011;15314;49.248;6.968;2022-10-16T00:30:18;11.07;;;10.05;;
27977;SDS011;15314;49.248;6.968;2022-10-16T00:31:19;11.13;;;10.43;;
27977;SDS011;15314;49.248;6.968;2022-10-16T00:32:21;11.20;;;10.57;;
27977;SDS011;15314;49.248;6.968;2022-10-16T00:33:22;11.98;;;10.88;;
27977;SDS011;15314;49.248;6.968;2022-10-16T00:34:22;10.65;;;9.98;;
27977;SDS011;15314;49.248;6.968;2022-10-16T00:35:23;10.30;;;9.70;;
27977;SDS011;15314;49.248;6.968;2022-10-16T00:36:25;9.60;;;9.00;;
27977;SDS011;15314;49.248;6.968;2022-10-16T00:37:26;10.93;;;10.07;;
27977;SDS011;15314;49.248;6.968;2022-10-16T00:38:26;10.82;;;10.15;;
27977;SDS011;15314;49.248;6.968;2022-10-16T00:39:27;13.80;;;12.80;;
27977;SDS011;15314;49.248;6.968;2022-10-16T00:40:28;21.20;;;19.27;;
27977;SDS011;15314;49.248;6.968;2022-10-16T00:41:28;10.88;;;9.98;;
27977;SDS011;15314;49.248;6.968;2022-10-16T00:42:30;12.48;;;11.65;;
27977;SDS011;15314;49.248;6.968;2022-10-16T00:45:07;10.98;;;10.15;;
27977;SDS011;15314;49.248;6.968;2022-10-16T00:48:42;10.73;;;10.02;;
27977;SDS011;15314;49.248;6.968;2022-10-16T00:49:51;10.50;;;9.85;;
27977;SDS011;15314;49.248;6.968;2022-10-16T00:50:56;10.77;;;10.07;;
27977;SDS011;15314;49.248;6.968;2022-10-16T00:51:58;10.07;;;9.57;;
27977;SDS011;15314;49.248;6.968;2022-10-16T00:52:58;10.63;;;9.65;;
27977;SDS011;15314;49.248;6.968;2022-10-16T00:54:06;9.77;;;9.27;;
27977;SDS011;15314;49.248;6.968;2022-10-16T00:55:10;9.48;;;8.90;;
27977;SDS011;15314;49.248;6.968;2022-10-16T00:56:11;10.20;;;9.60;;
27977;SDS011;15314;49.248;6.968;2022-10-16T00:57:12;10.07;;;9.48;;
27977;SDS011;15314;49.248;6.968;2022-10-16T00:58:13;9.65;;;9.10;;
27977;SDS011;15314;49.248;6.968;2022-10-16T00:59:15;9.25;;;8.85;;
27977;SDS011;15314;49.248;6.968;2022-10-16T01:00:20;9.32;;;8.82;;
27977;SDS011;15314;49.248;6.968;2022-10-16T01:01:23;9.48;;;9.00;;
27977;SDS011;15314;49.248;6.968;2022-10-16T01:02:23;9.40;;;8.80;;
27977;SDS011;15314;49.248;6.968;2022-10-16T01:03:27;9.80;;;8.70;;
27977;SDS011;15314;49.248;6.968;2022-10-16T01:06:17;9.23;;;8.73;;
27977;SDS011;15314;49.248;6.968;2022-10-16T01:11:32;9.02;;;8.40;;
27977;SDS011;15314;49.248;6.968;2022-10-16T01:12:42;9.13;;;8.65;;
27977;SDS011;15314;49.248;6.968;2022-10-16T01:13:53;9.35;;;8.85;;
27977;SDS011;15314;49.248;6.968;2022-10-16T01:14:59;9.57;;;8.95;;
27977;SDS011;15314;49.248;6.968;2022-10-16T01:16:11;9.60;;;9.10;;
27977;SDS011;15314;49.248;6.968;2022-10-16T01:17:17;9.23;;;8.57;;
27977;SDS011;15314;49.248;6.968;2022-10-16T01:18:28;9.60;;;9.10;;
27977;SDS011;15314;49.248;6.968;2022-10-16T01:21:06;9.30;;;8.80;;
27977;SDS011;15314;49.248;6.968;2022-10-16T01:22:09;9.30;;;8.80;;
27977;SDS011;15314;49.248;6.968;2022-10-16T01:23:21;9.68;;;8.95;;
27977;SDS011;15314;49.248;6.968;2022-10-16T01:24:37;9.57;;;8.82;;
27977;SDS011;15314;49.248;6.968;2022-10-16T01:28:13;10.27;;;9.43;;
27977;SDS011;15314;49.248;6.968;2022-10-16T01:29:18;9.73;;;9.05;;
27977;SDS011;15314;49.248;6.968;2022-10-16T01:30:26;9.48;;;9.07;;
27977;SDS011;15314;49.248;6.968;2022-10-16T01:31:32;10.32;;;9.73;;
27977;SDS011;15314;49.248;6.968;2022-10-16T01:32:57;9.88;;;9.38;;
27977;SDS011;15314;49.248;6.968;2022-10-16T01:34:02;10.45;;;9.85;;
27977;SDS011;15314;49.248;6.968;2022-10-16T01:36:21;10.43;;;9.75;;
27977;SDS011;15314;49.248;6.968;2022-10-16T01:37:46;9.60;;;8.85;;
27977;SDS011;15314;49.248;6.968;2022-10-16T01:38:51;9.00;;;8.52;;
27977;SDS011;15314;49.248;6.968;2022-10-16T01:39:54;9.68;;;9.18;;
27977;SDS011;15314;49.248;6.968;2022-10-16T01:40:59;8.88;;;8.48;;
27977;SDS011;15314;49.248;6.968;2022-10-16T01:42:20;10.05;;;9.43;;
27977;SDS011;15314;49.248;6.968;2022-10-16T01:43:25;9.13;;;8.50;;
27977;SDS011;15314;49.248;6.968;2022-10-16T01:44:32;9.60;;;9.20;;
27977;SDS011;15314;49.248;6.968;2022-10-16T01:45:36;9.98;;;9.25;;
27977;SDS011;15314;49.248;6.968;2022-10-16T01:46:40;9.85;;;9.25;;
27977;SDS011;15314;49.248;6.968;2022-10-16T01:47:42;10.32;;;9.60;;
27977;SDS011;15314;49.248;6.968;2022-10-16T01:48:44;10.65;;;9.75;;
27977;SDS011;15314;49.248;6.968;2022-10-16T01:49:45;9.70;;;9.13;;
27977;SDS011;15314;49.248;6.968;2022-10-16T01:50:58;9.23;;;8.80;;
27977;SDS011;15314;49.248;6.968;2022-10-16T01:52:04;9.48;;;8.88;;
27977;SDS011;15314;49.248;6.968;2022-10-16T01:53:10;10.05;;;9.40;;
27977;SDS011;15314;49.248;6.968;2022-10-16T01:54:13;9.93;;;9.00;;
27977;SDS011;15314;49.248;6.968;2022-10-16T01:55:17;9.75;;;9.27;;
27977;SDS011;15314;49.248;6.968;2022-10-16T01:56:22;9.77;;;9.18;;
27977;SDS011;15314;49.248;6.968;2022-10-16T01:57:25;10.70;;;10.00;;
27977;SDS011;15314;49.248;6.968;2022-10-16T01:58:28;10.18;;;9.38;;
27977;SDS011;15314;49.248;6.968;2022-10-16T01:59:35;9.80;;;9.15;;
27977;SDS011;15314;49.248;6.968;2022-10-16T02:00:43;9.40;;;8.80;;
27977;SDS011;15314;49.248;6.968;2022-10-16T02:01:50;9.27;;;8.40;;
27977;SDS011;15314;49.248;6.968;2022-10-16T02:02:55;10.85;;;9.43;;
27977;SDS011;15314;49.248;6.968;2022-10-16T02:04:00;9.43;;;8.95;;
27977;SDS011;15314;49.248;6.968;2022-10-16T02:05:21;9.65;;;9.02;;
27977;SDS011;15314;49.248;6.968;2022-10-16T02:06:44;8.95;;;8.45;;
27977;SDS011;15314;49.248;6.968;2022-10-16T02:07:45;8.45;;;8.05;;
27977;SDS011;15314;49.248;6.968;2022-10-16T02:08:47;9.38;;;8.88;;
27977;SDS011;15314;49.248;6.968;2022-10-16T02:09:47;9.57;;;9.18;;
27977;SDS011;15314;49.248;6.968;2022-10-16T02:10:51;9.70;;;9.00;;
27977;SDS011;15314;49.248;6.968;2022-10-16T02:11:52;8.82;;;8.45;;
27977;SDS011;15314;49.248;6.968;2022-10-16T02:12:56;9.20;;;8.70;;
27977;SDS011;15314;49.248;6.968;2022-10-16T02:14:03;9.75;;;9.02;;
27977;SDS011;15314;49.248;6.968;2022-10-16T02:15:06;9.25;;;8.57;;
27977;SDS011;15314;49.248;6.968;2022-10-16T02:16:07;9.52;;;8.85;;
27977;SDS011;15314;49.248;6.968;2022-10-16T02:17:13;9.38;;;8.68;;
27977;SDS011;15314;49.248;6.968;2022-10-16T02:18:15;9.32;;;8.85;;
27977;SDS011;15314;49.248;6.968;2022-10-16T02:19:17;9.27;;;8.68;;
27977;SDS011;15314;49.248;6.968;2022-10-16T02:20:20;10.00;;;9.02;;
27977;SDS011;15314;49.248;6.968;2022-10-16T02:21:32;10.20;;;9.30;;
27977;SDS011;15314;49.248;6.968;2022-10-16T02:22:39;9.63;;;9.05;;
27977;SDS011;15314;49.248;6.968;2022-10-16T02:25:13;9.38;;;8.88;;
27977;SDS011;15314;49.248;6.968;2022-10-16T02:26:37;9.55;;;9.07;;
27977;SDS011;15314;49.248;6.968;2022-10-16T02:27:55;9.95;;;9.35;;
27977;SDS011;15314;49.248;6.968;2022-10-16T02:29:00;9.85;;;9.20;;
27977;SDS011;15314;49.248;6.968;2022-10-16T02:30:07;9.05;;;8.65;;
27977;SDS011;15314;49.248;6.968;2022-10-16T02:31:16;10.23;;;9.63;;
27977;SDS011;15314;49.248;6.968;2022-10-16T02:32:23;10.07;;;9.38;;
27977;SDS011;15314;49.248;6.968;2022-10-16T02:33:27;9.90;;;9.30;;
27977;SDS011;15314;49.248;6.968;2022-10-16T02:34:31;10.50;;;9.90;;
27977;SDS011;15314;49.248;6.968;2022-10-16T02:35:32;9.57;;;9.07;;
27977;SDS011;15314;49.248;6.968;2022-10-16T02:36:34;9.45;;;8.95;;
27977;SDS011;15314;49.248;6.968;2022-10-16T02:37:36;10.00;;;9.20;;
27977;SDS011;15314;49.248;6.968;2022-10-16T02:38:40;9.07;;;8.30;;
27977;SDS011;15314;49.248;6.968;2022-10-16T02:39:41;9.38;;;8.75;;
27977;SDS011;15314;49.248;6.968;2022-10-16T02:40:42;9.80;;;9.10;;
27977;SDS011;15314;49.248;6.968;2022-10-16T02:41:43;8.65;;;8.15;;
27977;SDS011;15314;49.248;6.968;2022-10-16T02:42:44;9.38;;;8.77;;
27977;SDS011;15314;49.248;6.968;2022-10-16T02:43:44;9.40;;;8.77;;
27977;SDS011;15314;49.248;6.968;2022-10-16T02:44:45;9.77;;;9.18;;
27977;SDS011;15314;49.248;6.968;2022-10-16T02:45:45;10.05;;;9.27;;
27977;SDS011;15314;49.248;6.968;2022-10-16T02:46:46;9.82;;;9.23;;
27977;SDS011;15314;49.248;6.968;2022-10-16T02:47:47;10.15;;;9.25;;
27977;SDS011;15314;49.248;6.968;2022-10-16T02:48:47;10.80;;;9.77;;
27977;SDS011;15314;49.248;6.968;2022-10-16T02:49:48;10.45;;;9.75;;
27977;SDS011;15314;49.248;6.968;2022-10-16T02:50:52;9.88;;;9.30;;
27977;SDS011;15314;49.248;6.968;2022-10-16T02:51:52;9.50;;;9.00;;
27977;SDS011;15314;49.248;6.968;2022-10-16T02:52:53;11.02;;;9.95;;
27977;SDS011;15314;49.248;6.968;2022-10-16T02:53:53;9.38;;;8.75;;
27977;SDS011;15314;49.248;6.968;2022-10-16T02:54:54;11.15;;;10.25;;
27977;SDS011;15314;49.248;6.968;2022-10-16T02:55:55;9.90;;;9.40;;
27977;SDS011;15314;49.248;6.968;2022-10-16T02:56:55;9.85;;;9.05;;
27977;SDS011;15314;49.248;6.968;2022-10-16T02:57:56;9.70;;;9.10;;
27977;SDS011;15314;49.248;6.968;2022-10-16T02:58:57;9.35;;;8.95;;
27977;SDS011;15314;49.248;6.968;2022-10-16T02:59:57;9.05;;;8.55;;
27977;SDS011;15314;49.248;6.968;2022-10-16T03:00:58;9.85;;;9.07;;
27977;SDS011;15314;49.248;6.968;2022-10-16T03:01:59;9.25;;;8.60;;
27977;SDS011;15314;49.248;6.968;2022-10-16T03:02:59;9.00;;;8.48;;
27977;SDS011;15314;49.248;6.968;2022-10-16T03:04:00;9.50;;;8.90;;
27977;SDS011;15314;49.248;6.968;2022-10-16T03:05:00;9.13;;;8.60;;
27977;SDS011;15314;49.248;6.968;2022-10-16T03:06:01;8.60;;;8.20;;
27977;SDS011;15314;49.248;6.968;2022-10-16T03:07:02;9.40;;;8.93;;
27977;SDS011;15314;49.248;6.968;2022-10-16T03:08:03;9.30;;;8.60;;
27977;SDS011;15314;49.248;6.968;2022-10-16T03:09:04;9.75;;;9.25;;
27977;SDS011;15314;49.248;6.968;2022-10-16T03:10:05;9.40;;;8.95;;
27977;SDS011;15314;49.248;6.968;2022-10-16T03:11:06;9.27;;;8.68;;
27977;SDS011;15314;49.248;6.968;2022-10-16T03:12:06;9.93;;;9.40;;
27977;SDS011;15314;49.248;6.968;2022-10-16T03:13:07;10.07;;;9.38;;
27977;SDS011;15314;49.248;6.968;2022-10-16T03:14:08;9.48;;;8.77;;
27977;SDS011;15314;49.248;6.968;2022-10-16T03:15:08;9.35;;;8.85;;
27977;SDS011;15314;49.248;6.968;2022-10-16T03:16:09;9.57;;;8.88;;
27977;SDS011;15314;49.248;6.968;2022-10-16T03:17:10;9.20;;;8.60;;
27977;SDS011;15314;49.248;6.968;2022-10-16T03:18:10;9.07;;;8.48;;
27977;SDS011;15314;49.248;6.968;2022-10-16T03:19:11;9.57;;;8.82;;
27977;SDS011;15314;49.248;6.968;2022-10-16T03:20:14;9.40;;;8.90;;
27977;SDS011;15314;49.248;6.968;2022-10-16T03:21:15;9.15;;;8.55;;
27977;SDS011;15314;49.248;6.968;2022-10-16T03:22:16;8.30;;;7.90;;
27977;SDS011;15314;49.248;6.968;2022-10-16T03:23:17;9.32;;;8.82;;
27977;SDS011;15314;49.248;6.968;2022-10-16T03:24:17;9.30;;;8.60;;
27977;SDS011;15314;49.248;6.968;2022-10-16T03:25:18;8.93;;;8.40;;
27977;SDS011;15314;49.248;6.968;2022-10-16T03:26:18;9.45;;;8.85;;
27977;SDS011;15314;49.248;6.968;2022-10-16T03:27:19;9.88;;;9.18;;
27977;SDS011;15314;49.248;6.968;2022-10-16T03:28:20;9.73;;;8.95;;
27977;SDS011;15314;49.248;6.968;2022-10-16T03:29:20;9.45;;;8.75;;
27977;SDS011;15314;49.248;6.968;2022-10-16T03:30:21;9.73;;;8.73;;
27977;SDS011;15314;49.248;6.968;2022-10-16T03:31:21;9.38;;;8.77;;
27977;SDS011;15314;49.248;6.968;2022-10-16T03:32:22;9.00;;;8.40;;
27977;SDS011;15314;49.248;6.968;2022-10-16T03:33:24;9.55;;;9.05;;
27977;SDS011;15314;49.248;6.968;2022-10-16T03:34:25;9.05;;;8.35;;
27977;SDS011;15314;49.248;6.968;2022-10-16T03:35:26;9.68;;;8.98;;
27977;SDS011;15314;49.248;6.968;2022-10-16T03:36:26;8.98;;;8.57;;
27977;SDS011;15314;49.248;6.968;2022-10-16T03:37:27;9.65;;;9.15;;
27977;SDS011;15314;49.248;6.968;2022-10-16T03:38:28;8.98;;;8.25;;
27977;SDS011;15314;49.248;6.968;2022-10-16T03:39:28;8.77;;;8.38;;
27977;SDS011;15314;49.248;6.968;2022-10-16T03:40:29;9.77;;;9.23;;
27977;SDS011;15314;49.248;6.968;2022-10-16T03:41:32;9.60;;;9.02;;
27977;SDS011;15314;49.248;6.968;2022-10-16T03:42:32;8.88;;;8.48;;
27977;SDS011;15314;49.248;6.968;2022-10-16T03:43:33;10.55;;;9.00;;
27977;SDS011;15314;49.248;6.968;2022-10-16T03:44:34;9.65;;;8.85;;
27977;SDS011;15314;49.248;6.968;2022-10-16T03:45:34;9.88;;;9.18;;
27977;SDS011;15314;49.248;6.968;2022-10-16T03:46:35;9.35;;;8.80;;
27977;SDS011;15314;49.248;6.968;2022-10-16T03:47:36;9.55;;;8.73;;
27977;SDS011;15314;49.248;6.968;2022-10-16T03:48:36;9.52;;;8.82;;
27977;SDS011;15314;49.248;6.968;2022-10-16T03:49:37;10.10;;;9.57;;
27977;SDS011;15314;49.248;6.968;2022-10-16T03:50:37;9.88;;;9.20;;
27977;SDS011;15314;49.248;6.968;2022-10-16T03:51:38;10.02;;;9.27;;
27977;SDS011;15314;49.248;6.968;2022-10-16T03:52:39;9.40;;;8.98;;
27977;SDS011;15314;49.248;6.968;2022-10-16T03:53:39;9.20;;;8.70;;
27977;SDS011;15314;49.248;6.968;2022-10-16T03:54:40;10.23;;;9.73;;
27977;SDS011;15314;49.248;6.968;2022-10-16T03:55:41;12.52;;;11.52;;
27977;SDS011;15314;49.248;6.968;2022-10-16T03:56:42;12.45;;;11.27;;
27977;SDS011;15314;49.248;6.968;2022-10-16T03:57:43;12.00;;;11.25;;
27977;SDS011;15314;49.248;6.968;2022-10-16T03:58:43;16.38;;;14.85;;
27977;SDS011;15314;49.248;6.968;2022-10-16T03:59:44;17.60;;;16.10;;
27977;SDS011;15314;49.248;6.968;2022-10-16T04:00:44;16.05;;;14.73;;
27977;SDS011;15314;49.248;6.968;2022-10-16T04:01:47;14.25;;;12.77;;
27977;SDS011;15314;49.248;6.968;2022-10-16T04:02:48;11.77;;;11.02;;
27977;SDS011;15314;49.248;6.968;2022-10-16T04:03:48;11.48;;;10.82;;
27977;SDS011;15314;49.248;6.968;2022-10-16T04:04:49;11.38;;;10.57;;
27977;SDS011;15314;49.248;6.968;2022-10-16T04:05:49;11.73;;;10.73;;
27977;SDS011;15314;49.248;6.968;2022-10-16T04:06:50;11.57;;;10.80;;
27977;SDS011;15314;49.248;6.968;2022-10-16T04:07:51;11.35;;;10.45;;
27977;SDS011;15314;49.248;6.968;2022-10-16T04:08:52;11.68;;;10.80;;
27977;SDS011;15314;49.248;6.968;2022-10-16T04:09:53;11.00;;;10.40;;
27977;SDS011;15314;49.248;6.968;2022-10-16T04:10:53;10.98;;;10.07;;
27977;SDS011;15314;49.248;6.968;2022-10-16T04:11:54;11.38;;;10.77;;
27977;SDS011;15314;49.248;6.968;2022-10-16T04:12:54;11.57;;;10.75;;
27977;SDS011;15314;49.248;6.968;2022-10-16T04:13:56;12.00;;;11.13;;
27977;SDS011;15314;49.248;6.968;2022-10-16T04:14:56;12.25;;;11.20;;
27977;SDS011;15314;49.248;6.968;2022-10-16T04:15:57;12.18;;;11.35;;
27977;SDS011;15314;49.248;6.968;2022-10-16T04:16:57;12.13;;;11.32;;
27977;SDS011;15314;49.248;6.968;2022-10-16T04:17:58;12.02;;;10.95;;
27977;SDS011;15314;49.248;6.968;2022-10-16T04:18:58;11.85;;;10.90;;
27977;SDS011;15314;49.248;6.968;2022-10-16T04:19:59;11.02;;;10.43;;
27977;SDS011;15314;49.248;6.968;2022-10-16T04:21:03;11.48;;;10.52;;
27977;SDS011;15314;49.248;6.968;2022-10-16T04:22:05;11.43;;;10.73;;
27977;SDS011;15314;49.248;6.968;2022-10-16T04:23:05;11.68;;;10.77;;
27977;SDS011;15314;49.248;6.968;2022-10-16T04:24:06;11.82;;;10.80;;
27977;SDS011;15314;49.248;6.968;2022-10-16T04:25:06;11.68;;;10.63;;
27977;SDS011;15314;49.248;6.968;2022-10-16T04:26:07;11.60;;;10.70;;
27977;SDS011;15314;49.248;6.968;2022-10-16T04:27:10;11.18;;;10.48;;
27977;SDS011;15314;49.248;6.968;2022-10-16T04:28:10;11.90;;;11.10;;
27977;SDS011;15314;49.248;6.968;2022-10-16T04:29:11;12.40;;;11.38;;
27977;SDS011;15314;49.248;6.968;2022-10-16T04:30:12;11.18;;;10.38;;
27977;SDS011;15314;49.248;6.968;2022-10-16T04:31:13;11.20;;;10.55;;
27977;SDS011;15314;49.248;6.968;2022-10-16T04:32:14;12.10;;;11.30;;
27977;SDS011;15314;49.248;6.968;2022-10-16T04:33:14;12.98;;;11.77;;
27977;SDS011;15314;49.248;6.968;2022-10-16T04:34:15;12.20;;;11.30;;
27977;SDS011;15314;49.248;6.968;2022-10-16T04:35:16;11.27;;;10.48;;
27977;SDS011;15314;49.248;6.968;2022-10-16T04:36:18;11.23;;;10.40;;
27977;SDS011;15314;49.248;6.968;2022-10-16T04:37:18;12.77;;;11.77;;
27977;SDS011;15314;49.248;6.968;2022-10-16T04:38:23;11.98;;;11.07;;
27977;SDS011;15314;49.248;6.968;2022-10-16T04:39:23;10.82;;;10.32;;
27977;SDS011;15314;49.248;6.968;2022-10-16T04:40:24;11.48;;;10.68;;
27977;SDS011;15314;49.248;6.968;2022-10-16T04:41:25;12.85;;;11.95;;
27977;SDS011;15314;49.248;6.968;2022-10-16T04:42:25;13.07;;;12.07;;
27977;SDS011;15314;49.248;6.968;2022-10-16T04:43:26;12.68;;;11.55;;
27977;SDS011;15314;49.248;6.968;2022-10-16T04:44:26;11.98;;;11.27;;
27977;SDS011;15314;49.248;6.968;2022-10-16T04:45:27;12.88;;;11.75;;
27977;SDS011;15314;49.248;6.968;2022-10-16T04:46:27;11.60;;;10.90;;
27977;SDS011;15314;49.248;6.968;2022-10-16T04:47:28;11.55;;;10.85;;
27977;SDS011;15314;49.248;6.968;2022-10-16T04:48:29;11.13;;;10.43;;
27977;SDS011;15314;49.248;6.968;2022-10-16T04:49:29;12.32;;;11.38;;
27977;SDS011;15314;49.248;6.968;2022-10-16T04:50:30;11.70;;;10.73;;
27977;SDS011;15314;49.248;6.968;2022-10-16T04:51:30;13.73;;;11.88;;
27977;SDS011;15314;49.248;6.968;2022-10-16T04:52:31;12.95;;;11.73;;
27977;SDS011;15314;49.248;6.968;2022-10-16T04:53:32;13.95;;;13.00;;
27977;SDS011;15314;49.248;6.968;2022-10-16T04:54:33;13.10;;;12.05;;
27977;SDS011;15314;49.248;6.968;2022-10-16T04:55:34;13.38;;;12.32;;
27977;SDS011;15314;49.248;6.968;2022-10-16T04:56:34;16.52;;;15.05;;
27977;SDS011;15314;49.248;6.968;2022-10-16T04:57:42;15.23;;;13.98;;
27977;SDS011;15314;49.248;6.968;2022-10-16T04:58:43;19.67;;;17.83;;
27977;SDS011;15314;49.248;6.968;2022-10-16T04:59:43;16.85;;;15.57;;
27977;SDS011;15314;49.248;6.968;2022-10-16T05:00:44;13.02;;;12.05;;
27977;SDS011;15314;49.248;6.968;2022-10-16T05:01:46;12.05;;;11.32;;
27977;SDS011;15314;49.248;6.968;2022-10-16T05:02:46;15.00;;;13.93;;
27977;SDS011;15314;49.248;6.968;2022-10-16T05:03:47;16.13;;;14.98;;
27977;SDS011;15314;49.248;6.968;2022-10-16T05:04:48;18.65;;;17.10;;
27977;SDS011;15314;49.248;6.968;2022-10-16T05:05:48;16.85;;;14.68;;
27977;SDS011;15314;49.248;6.968;2022-10-16T05:06:49;14.93;;;13.73;;
27977;SDS011;15314;49.248;6.968;2022-10-16T05:07:50;15.80;;;14.73;;
27977;SDS011;15314;49.248;6.968;2022-10-16T05:08:51;21.30;;;19.17;;
27977;SDS011;15314;49.248;6.968;2022-10-16T05:09:52;17.88;;;15.70;;
27977;SDS011;15314;49.248;6.968;2022-10-16T05:10:53;15.32;;;14.18;;
27977;SDS011;15314;49.248;6.968;2022-10-16T05:11:53;16.67;;;15.15;;
27977;SDS011;15314;49.248;6.968;2022-10-16T05:12:54;24.75;;;22.85;;
27977;SDS011;15314;49.248;6.968;2022-10-16T05:13:54;18.05;;;16.23;;
27977;SDS011;15314;49.248;6.968;2022-10-16T05:14:55;17.85;;;16.38;;
27977;SDS011;15314;49.248;6.968;2022-10-16T05:15:58;17.17;;;15.85;;
27977;SDS011;15314;49.248;6.968;2022-10-16T05:16:59;18.10;;;16.77;;
27977;SDS011;15314;49.248;6.968;2022-10-16T05:18:00;18.17;;;16.67;;
27977;SDS011;15314;49.248;6.968;2022-10-16T05:19:01;17.70;;;16.25;;
27977;SDS011;15314;49.248;6.968;2022-10-16T05:20:02;20.33;;;18.80;;
27977;SDS011;15314;49.248;6.968;2022-10-16T05:21:03;19.00;;;17.33;;
27977;SDS011;15314;49.248;6.968;2022-10-16T05:22:04;22.58;;;20.85;;
27977;SDS011;15314;49.248;6.968;2022-10-16T05:23:04;24.83;;;22.35;;
27977;SDS011;15314;49.248;6.968;2022-10-16T05:24:05;22.38;;;20.75;;
27977;SDS011;15314;49.248;6.968;2022-10-16T05:25:05;21.50;;;19.75;;
27977;SDS011;15314;49.248;6.968;2022-10-16T05:26:06;20.05;;;18.42;;
27977;SDS011;15314;49.248;6.968;2022-10-16T05:27:07;20.20;;;18.33;;
27977;SDS011;15314;49.248;6.968;2022-10-16T05:28:08;23.30;;;21.00;;
27977;SDS011;15314;49.248;6.968;2022-10-16T05:29:08;18.05;;;16.75;;
27977;SDS011;15314;49.248;6.968;2022-10-16T05:30:09;17.58;;;15.93;;
27977;SDS011;15314;49.248;6.968;2022-10-16T05:31:10;18.20;;;16.80;;
27977;SDS011;15314;49.248;6.968;2022-10-16T05:32:11;15.50;;;14.18;;
27977;SDS011;15314;49.248;6.968;2022-10-16T05:33:11;14.27;;;13.18;;
27977;SDS011;15314;49.248;6.968;2022-10-16T05:34:12;17.52;;;16.08;;
27977;SDS011;15314;49.248;6.968;2022-10-16T05:35:12;15.18;;;14.07;;
27977;SDS011;15314;49.248;6.968;2022-10-16T05:36:13;16.90;;;15.38;;
27977;SDS011;15314;49.248;6.968;2022-10-16T05:37:14;14.10;;;13.10;;
27977;SDS011;15314;49.248;6.968;2022-10-16T05:38:14;14.27;;;13.18;;
27977;SDS011;15314;49.248;6.968;2022-10-16T05:39:16;13.07;;;12.13;;
27977;SDS011;15314;49.248;6.968;2022-10-16T05:40:16;20.70;;;18.90;;
27977;SDS011;15314;49.248;6.968;2022-10-16T05:41:18;15.60;;;14.43;;
27977;SDS011;15314;49.248;6.968;2022-10-16T05:42:21;12.75;;;11.82;;
27977;SDS011;15314;49.248;6.968;2022-10-16T05:43:22;13.25;;;12.20;;
27977;SDS011;15314;49.248;6.968;2022-10-16T05:44:23;11.98;;;11.05;;
27977;SDS011;15314;49.248;6.968;2022-10-16T05:45:23;12.10;;;11.48;;
27977;SDS011;15314;49.248;6.968;2022-10-16T05:46:24;12.80;;;11.82;;
27977;SDS011;15314;49.248;6.968;2022-10-16T05:47:24;12.43;;;11.70;;
27977;SDS011;15314;49.248;6.968;2022-10-16T05:48:25;12.50;;;11.63;;
27977;SDS011;15314;49.248;6.968;2022-10-16T05:49:26;12.02;;;11.32;;
27977;SDS011;15314;49.248;6.968;2022-10-16T05:50:27;13.15;;;12.02;;
27977;SDS011;15314;49.248;6.968;2022-10-16T05:51:27;13.02;;;11.82;;
27977;SDS011;15314;49.248;6.968;2022-10-16T05:52:28;13.50;;;12.35;;
27977;SDS011;15314;49.248;6.968;2022-10-16T05:53:29;11.77;;;10.65;;
27977;SDS011;15314;49.248;6.968;2022-10-16T05:54:31;11.98;;;11.18;;
27977;SDS011;15314;49.248;6.968;2022-10-16T05:55:32;13.18;;;11.98;;
27977;SDS011;15314;49.248;6.968;2022-10-16T05:56:32;11.93;;;11.15;;
27977;SDS011;15314;49.248;6.968;2022-10-16T05:57:33;12.40;;;11.48;;
27977;SDS011;15314;49.248;6.968;2022-10-16T05:58:34;14.27;;;13.00;;
27977;SDS011;15314;49.248;6.968;2022-10-16T05:59:36;18.70;;;17.10;;
27977;SDS011;15314;49.248;6.968;2022-10-16T06:00:36;15.77;;;14.45;;
27977;SDS011;15314;49.248;6.968;2022-10-16T06:01:37;13.25;;;12.55;;
27977;SDS011;15314;49.248;6.968;2022-10-16T06:02:38;12.90;;;12.00;;
27977;SDS011;15314;49.248;6.968;2022-10-16T06:03:38;12.93;;;12.02;;
27977;SDS011;15314;49.248;6.968;2022-10-16T06:04:40;11.93;;;10.82;;
27977;SDS011;15314;49.248;6.968;2022-10-16T06:05:40;10.55;;;9.85;;
27977;SDS011;15314;49.248;6.968;2022-10-16T06:06:42;10.77;;;10.20;;
27977;SDS011;15314;49.248;6.968;2022-10-16T06:07:43;12.32;;;11.48;;
27977;SDS011;15314;49.248;6.968;2022-10-16T06:08:44;11.68;;;10.77;;
27977;SDS011;15314;49.248;6.968;2022-10-16T06:09:51;11.10;;;10.60;;
27977;SDS011;15314;49.248;6.968;2022-10-16T06:11:02;14.60;;;13.55;;
27977;SDS011;15314;49.248;6.968;2022-10-16T06:12:07;11.18;;;10.57;;
27977;SDS011;15314;49.248;6.968;2022-10-16T06:13:08;10.82;;;10.23;;
27977;SDS011;15314;49.248;6.968;2022-10-16T06:14:09;12.05;;;11.45;;
27977;SDS011;15314;49.248;6.968;2022-10-16T06:15:10;10.68;;;10.02;;
27977;SDS011;15314;49.248;6.968;2022-10-16T06:16:10;10.68;;;10.18;;
27977;SDS011;15314;49.248;6.968;2022-10-16T06:17:12;13.77;;;12.48;;
27977;SDS011;15314;49.248;6.968;2022-10-16T06:18:13;12.05;;;11.20;;
27977;SDS011;15314;49.248;6.968;2022-10-16T06:19:14;10.85;;;9.95;;
27977;SDS011;15314;49.248;6.968;2022-10-16T06:20:16;12.25;;;11.50;;
27977;SDS011;15314;49.248;6.968;2022-10-16T06:21:17;11.57;;;10.98;;
27977;SDS011;15314;49.248;6.968;2022-10-16T06:22:20;12.32;;;11.07;;
27977;SDS011;15314;49.248;6.968;2022-10-16T06:23:21;10.45;;;9.95;;
27977;SDS011;15314;49.248;6.968;2022-10-16T06:24:22;11.68;;;10.98;;
27977;SDS011;15314;49.248;6.968;2022-10-16T06:25:22;10.73;;;9.88;;
27977;SDS011;15314;49.248;6.968;2022-10-16T06:26:24;11.68;;;10.30;;